createdAt,value
2022-11-03T00:01:40.508Z,9.70
2022-11-03T00:04:10.246Z,9.70
2022-11-03T00:06:39.230Z,9.60
2022-11-03T00:09:09.782Z,9.60
2022-11-03T00:11:39.695Z,9.70
2022-11-03T00:14:09.362Z,9.70
2022-11-03T00:16:39.725Z,9.80
2022-11-03T00:19:09.250Z,9.70
2022-11-03T00:21:37.961Z,9.70
2022-11-03T00:24:07.428Z,9.70
2022-11-03T00:26:36.884Z,9.60
2022-11-03T00:29:09.374Z,9.60
2022-11-03T00:31:40.827Z,9.60
2022-11-03T00:34:10.189Z,9.60
2022-11-03T00:36:40.480Z,9.60
2022-11-03T00:39:09.180Z,9.60
2022-11-03T00:41:37.849Z,9.60
2022-11-03T00:44:06.705Z,9.60
2022-11-03T00:46:36.306Z,9.60
2022-11-03T00:49:06.790Z,9.50
2022-11-03T00:51:36.197Z,9.50
2022-11-03T00:54:07.129Z,9.50
2022-11-03T00:56:36.873Z,9.50
2022-11-03T00:59:06.512Z,9.40
2022-11-03T01:01:42.141Z,9.40
2022-11-03T01:04:32.963Z,9.40
2022-11-03T01:07:02.057Z,9.30
2022-11-03T01:09:32.168Z,9.40
2022-11-03T01:12:03.262Z,9.30
2022-11-03T01:14:34.475Z,9.30
2022-11-03T01:17:03.195Z,9.20
2022-11-03T01:19:32.780Z,9.30
2022-11-03T01:22:01.000Z,9.20
2022-11-03T01:24:29.324Z,9.30
2022-11-03T01:26:58.132Z,9.30
2022-11-03T01:29:26.334Z,9.40
2022-11-03T01:31:54.586Z,9.50
2022-11-03T01:34:23.426Z,9.50
2022-11-03T01:36:53.738Z,9.60
2022-11-03T01:39:21.978Z,9.60
2022-11-03T01:41:51.891Z,9.60
2022-11-03T01:44:34.828Z,9.60
2022-11-03T01:47:10.103Z,9.60
2022-11-03T01:49:43.400Z,9.70
2022-11-03T01:52:19.497Z,9.70
2022-11-03T01:54:50.980Z,9.80
2022-11-03T01:57:25.371Z,9.80
2022-11-03T01:59:55.444Z,9.80
2022-11-03T02:02:27.547Z,9.70
2022-11-03T02:04:56.825Z,9.70
2022-11-03T02:07:31.724Z,9.80
2022-11-03T02:10:00.050Z,9.80
2022-11-03T02:12:28.344Z,9.80
2022-11-03T02:15:00.662Z,9.80
2022-11-03T02:17:31.389Z,9.80
2022-11-03T02:20:03.366Z,9.90
2022-11-03T02:22:46.635Z,10.00
2022-11-03T02:25:20.569Z,9.90
2022-11-03T02:27:50.447Z,10.00
2022-11-03T02:30:18.874Z,9.90
2022-11-03T02:32:57.184Z,9.90
2022-11-03T02:35:30.608Z,10.00
2022-11-03T02:38:02.242Z,10.10
2022-11-03T02:40:34.279Z,10.00
2022-11-03T02:43:07.269Z,10.10
2022-11-03T02:45:36.404Z,10.10
2022-11-03T02:48:05.746Z,10.10
2022-11-03T02:50:35.217Z,10.10
2022-11-03T02:53:03.808Z,10.20
2022-11-03T02:55:38.117Z,10.10
2022-11-03T02:58:16.360Z,10.20
2022-11-03T03:00:51.010Z,10.20
2022-11-03T03:03:25.815Z,10.20
2022-11-03T03:05:58.375Z,10.20
2022-11-03T03:08:28.369Z,10.30
2022-11-03T03:10:58.834Z,10.20
2022-11-03T03:13:28.749Z,10.20
2022-11-03T03:16:07.702Z,10.20
2022-11-03T03:18:46.681Z,10.20
2022-11-03T03:21:19.195Z,10.30
2022-11-03T03:23:52.018Z,10.20
2022-11-03T03:26:25.508Z,10.20
2022-11-03T03:28:59.420Z,10.20
2022-11-03T03:31:29.716Z,10.30
2022-11-03T03:34:04.847Z,10.30
2022-11-03T03:36:48.211Z,10.30
2022-11-03T03:39:18.912Z,10.30
2022-11-03T03:41:48.723Z,10.30
2022-11-03T03:44:18.777Z,10.30
2022-11-03T03:46:52.423Z,10.40
2022-11-03T03:49:21.304Z,10.40
2022-11-03T03:51:51.008Z,10.40
2022-11-03T03:54:19.241Z,10.40
2022-11-03T03:56:52.706Z,10.40
2022-11-03T03:59:22.260Z,10.40
2022-11-03T04:01:50.728Z,10.40
2022-11-03T04:04:19.521Z,10.40
2022-11-03T04:06:47.854Z,10.40
2022-11-03T04:09:16.277Z,10.50
2022-11-03T04:12:01.679Z,10.50
2022-11-03T04:14:54.120Z,10.50
2022-11-03T04:17:39.590Z,10.40
2022-11-03T04:20:30.609Z,10.40
2022-11-03T04:22:58.844Z,10.40
2022-11-03T04:25:27.089Z,10.40
2022-11-03T04:27:55.285Z,10.40
2022-11-03T04:30:26.405Z,10.40
2022-11-03T04:32:54.881Z,10.50
2022-11-03T04:35:25.634Z,10.50
2022-11-03T04:37:58.099Z,10.40
2022-11-03T04:40:27.434Z,10.40
2022-11-03T04:42:56.028Z,10.50
2022-11-03T04:45:30.244Z,10.50
2022-11-03T04:48:01.115Z,10.50
2022-11-03T04:50:29.362Z,10.60
2022-11-03T04:52:59.213Z,10.60
2022-11-03T04:55:28.169Z,10.60
2022-11-03T04:57:59.563Z,10.60
2022-11-03T05:00:29.174Z,10.60
2022-11-03T05:02:57.389Z,10.70
2022-11-03T05:05:27.566Z,10.70
2022-11-03T05:07:57.620Z,10.80
2022-11-03T05:10:28.128Z,10.80
2022-11-03T05:12:58.121Z,10.80
2022-11-03T05:15:35.956Z,10.90
2022-11-03T05:18:15.222Z,10.90
2022-11-03T05:20:47.678Z,10.90
2022-11-03T05:23:16.331Z,11.00
2022-11-03T05:25:47.342Z,11.00
2022-11-03T05:28:22.846Z,11.00
2022-11-03T05:30:53.291Z,11.00
2022-11-03T05:33:29.060Z,10.90
2022-11-03T05:35:59.792Z,10.90
2022-11-03T05:38:31.911Z,10.90
2022-11-03T05:41:01.117Z,10.80
2022-11-03T05:43:29.961Z,10.80
2022-11-03T05:46:03.752Z,10.80
2022-11-03T05:48:34.585Z,10.90
2022-11-03T05:51:11.929Z,10.90
2022-11-03T05:53:43.308Z,10.80
2022-11-03T05:56:18.799Z,10.90
2022-11-03T05:58:49.886Z,10.80
2022-11-03T06:01:24.208Z,10.80
2022-11-03T06:03:52.729Z,10.70
2022-11-03T06:06:29.377Z,10.70
2022-11-03T06:09:03.178Z,10.70
2022-11-03T06:11:36.336Z,10.70
2022-11-03T06:14:18.643Z,10.70
2022-11-03T06:16:55.466Z,10.70
2022-11-03T06:19:27.774Z,10.70
2022-11-03T06:21:59.049Z,10.80
2022-11-03T06:24:32.027Z,10.80
2022-11-03T06:27:00.283Z,10.90
2022-11-03T06:29:32.167Z,10.80
2022-11-03T06:32:02.670Z,10.90
2022-11-03T06:34:38.900Z,10.90
2022-11-03T06:37:17.305Z,10.90
2022-11-03T06:39:45.510Z,10.90
2022-11-03T06:42:18.075Z,10.90
2022-11-03T06:44:48.224Z,10.90
2022-11-03T06:47:23.277Z,11.00
2022-11-03T06:49:52.963Z,10.90
2022-11-03T06:52:30.277Z,11.00
2022-11-03T06:55:17.136Z,10.90
2022-11-03T06:57:47.814Z,11.00
2022-11-03T07:00:40.054Z,11.00
2022-11-03T07:03:15.786Z,11.10
2022-11-03T07:05:46.292Z,11.10
2022-11-03T07:08:24.752Z,11.20
2022-11-03T07:11:01.502Z,11.20
2022-11-03T07:13:32.783Z,11.20
2022-11-03T07:16:01.079Z,11.20
2022-11-03T07:18:35.211Z,11.30
2022-11-03T07:21:14.773Z,11.30
2022-11-03T07:23:46.249Z,11.30
2022-11-03T07:26:15.623Z,11.30
2022-11-03T07:28:43.860Z,11.30
2022-11-03T07:31:16.630Z,11.30
2022-11-03T07:33:47.345Z,11.30
2022-11-03T07:36:19.340Z,11.30
2022-11-03T07:38:51.797Z,11.40
2022-11-03T07:41:22.774Z,11.40
2022-11-03T07:43:55.838Z,11.50
2022-11-03T07:46:25.543Z,11.50
2022-11-03T07:48:57.781Z,11.60
2022-11-03T07:51:29.775Z,11.70
2022-11-03T07:54:02.425Z,11.70
2022-11-03T07:56:36.657Z,11.80
2022-11-03T07:59:15.423Z,11.80
2022-11-03T08:01:45.191Z,11.90
2022-11-03T08:04:20.256Z,11.90
2022-11-03T08:06:49.322Z,12.00
2022-11-03T08:09:17.537Z,12.00
2022-11-03T08:11:45.993Z,12.10
2022-11-03T08:14:14.610Z,12.10
2022-11-03T08:16:42.921Z,12.20
2022-11-03T08:19:11.515Z,12.30
2022-11-03T08:21:41.116Z,12.40
2022-11-03T08:24:09.404Z,12.40
2022-11-03T08:26:37.605Z,12.50
2022-11-03T08:29:05.775Z,12.60
2022-11-03T08:31:34.013Z,12.70
2022-11-03T08:34:02.199Z,12.80
2022-11-03T08:36:30.368Z,12.90
2022-11-03T08:38:59.968Z,13.00
2022-11-03T08:41:28.150Z,13.10
2022-11-03T08:43:56.340Z,13.10
2022-11-03T08:46:24.649Z,13.10
2022-11-03T08:48:53.020Z,13.20
2022-11-03T08:51:21.189Z,13.20
2022-11-03T08:53:50.761Z,13.20
2022-11-03T08:56:22.651Z,13.30
2022-11-03T08:58:51.415Z,13.20
2022-11-03T09:01:19.700Z,13.20
2022-11-03T09:03:48.206Z,13.30
2022-11-03T09:06:16.652Z,13.30
2022-11-03T09:11:36.323Z,13.30
2022-11-03T09:14:04.558Z,13.30
2022-11-03T09:16:32.768Z,13.40
2022-11-03T09:19:01.028Z,13.50
2022-11-03T09:21:29.905Z,13.50
2022-11-03T09:24:00.064Z,13.50
2022-11-03T09:26:29.256Z,13.60
2022-11-03T09:28:58.871Z,13.60
2022-11-03T09:31:28.557Z,13.60
2022-11-03T09:33:57.219Z,13.70
2022-11-03T09:36:25.361Z,13.80
2022-11-03T09:38:53.532Z,14.00
2022-11-03T09:41:29.150Z,14.00
2022-11-03T09:44:13.001Z,14.10
2022-11-03T09:46:41.231Z,14.20
2022-11-03T09:49:09.582Z,14.30
2022-11-03T09:51:37.844Z,14.30
2022-11-03T09:54:07.069Z,14.40
2022-11-03T09:56:38.025Z,14.40
2022-11-03T09:59:16.948Z,14.50
2022-11-03T10:01:48.728Z,14.50
2022-11-03T10:04:17.905Z,14.50
2022-11-03T10:06:46.251Z,14.60
2022-11-03T10:09:20.576Z,14.60
2022-11-03T10:11:49.451Z,14.60
2022-11-03T10:14:20.216Z,14.60
2022-11-03T10:16:54.599Z,14.60
2022-11-03T10:19:22.895Z,14.50
2022-11-03T10:21:52.319Z,14.50
2022-11-03T10:24:20.521Z,14.50
2022-11-03T10:26:50.447Z,14.50
2022-11-03T10:29:22.721Z,14.50
2022-11-03T10:31:53.371Z,14.60
2022-11-03T10:34:27.199Z,14.60
2022-11-03T10:37:17.190Z,14.60
2022-11-03T10:39:46.326Z,14.60
2022-11-03T10:42:22.184Z,14.60
2022-11-03T10:44:54.246Z,14.70
2022-11-03T10:47:33.954Z,14.70
2022-11-03T10:50:21.643Z,14.80
2022-11-03T10:52:50.595Z,14.70
2022-11-03T10:55:23.872Z,14.70
2022-11-03T10:57:55.633Z,14.70
2022-11-03T11:00:25.648Z,14.70
2022-11-03T11:03:01.985Z,14.70
2022-11-03T11:05:30.307Z,14.70
2022-11-03T11:08:00.623Z,14.70
2022-11-03T11:10:31.301Z,14.70
2022-11-03T11:13:28.868Z,14.70
2022-11-03T11:16:00.292Z,14.80
2022-11-03T11:19:14.450Z,14.80
2022-11-03T11:22:14.398Z,14.90
2022-11-03T11:25:02.700Z,15.00
2022-11-03T11:28:07.127Z,15.00
2022-11-03T11:31:32.139Z,15.00
2022-11-03T11:34:37.472Z,15.00
2022-11-03T11:37:35.729Z,14.90
2022-11-03T11:40:10.306Z,14.80
2022-11-03T11:43:25.677Z,14.80
2022-11-03T11:46:39.997Z,14.70
2022-11-03T11:49:18.973Z,14.70
2022-11-03T11:51:47.862Z,14.60
2022-11-03T11:54:21.901Z,14.70
2022-11-03T11:56:51.053Z,14.80
2022-11-03T11:59:25.244Z,15.00
2022-11-03T12:01:57.229Z,15.10
2022-11-03T12:04:29.190Z,15.30
2022-11-03T12:06:57.743Z,15.40
2022-11-03T12:09:28.848Z,15.60
2022-11-03T12:12:00.858Z,15.70
2022-11-03T12:14:37.406Z,15.80
2022-11-03T12:17:33.178Z,16.00
2022-11-03T12:20:01.346Z,16.00
2022-11-03T12:22:42.072Z,16.00
2022-11-03T12:25:37.133Z,16.00
2022-11-03T12:28:05.973Z,15.90
2022-11-03T12:30:39.483Z,15.90
2022-11-03T12:33:08.561Z,15.90
2022-11-03T12:35:37.056Z,15.90
2022-11-03T12:38:05.702Z,15.90
2022-11-03T12:40:35.292Z,16.00
2022-11-03T12:43:03.693Z,15.90
2022-11-03T12:45:32.069Z,15.80
2022-11-03T12:48:00.270Z,15.60
2022-11-03T12:50:28.495Z,15.60
2022-11-03T12:52:56.702Z,15.70
2022-11-03T12:55:25.186Z,15.90
2022-11-03T12:57:54.794Z,16.00
2022-11-03T13:00:23.988Z,16.10
2022-11-03T13:02:52.331Z,16.00
2022-11-03T13:05:20.724Z,16.00
2022-11-03T13:07:49.265Z,15.90
2022-11-03T13:10:17.781Z,15.80
2022-11-03T13:12:46.823Z,15.80
2022-11-03T13:15:16.868Z,15.90
2022-11-03T13:18:11.743Z,15.90
2022-11-03T13:20:33.791Z,16.00
2022-11-03T13:23:02.043Z,16.00
2022-11-03T13:25:30.479Z,16.00
2022-11-03T13:27:58.730Z,16.00
2022-11-03T13:30:28.609Z,16.00
2022-11-03T13:32:57.109Z,16.00
2022-11-03T13:35:25.287Z,15.90
2022-11-03T13:37:53.526Z,15.90
2022-11-03T13:43:10.213Z,15.60
2022-11-03T13:45:40.223Z,15.60
2022-11-03T13:50:56.971Z,15.60
2022-11-03T13:56:20.682Z,15.60
2022-11-03T14:01:40.760Z,15.50
2022-11-03T14:06:57.745Z,15.50
2022-11-03T14:09:26.020Z,15.40
2022-11-03T14:12:11.557Z,15.40
2022-11-03T14:14:39.780Z,15.40
2022-11-03T14:17:09.585Z,15.30
2022-11-03T14:19:43.730Z,15.30
2022-11-03T14:22:14.398Z,15.30
2022-11-03T14:24:42.558Z,15.30
2022-11-03T14:27:10.768Z,15.20
2022-11-03T14:29:38.974Z,15.20
2022-11-03T14:32:07.210Z,15.10
2022-11-03T14:34:36.997Z,15.10
2022-11-03T14:37:05.578Z,15.10
2022-11-03T14:39:33.832Z,15.00
2022-11-03T14:42:03.637Z,15.00
2022-11-03T14:44:34.136Z,15.00
2022-11-03T14:47:03.456Z,14.90
2022-11-03T14:49:32.914Z,14.90
2022-11-03T14:52:03.581Z,14.80
2022-11-03T14:54:32.449Z,14.80
2022-11-03T14:57:00.900Z,14.80
2022-11-03T14:59:29.499Z,14.80
2022-11-03T15:01:58.649Z,14.70
2022-11-03T15:04:27.388Z,14.70
2022-11-03T15:06:55.687Z,14.70
2022-11-03T15:09:25.270Z,14.70
2022-11-03T15:11:53.478Z,14.60
2022-11-03T15:14:21.727Z,14.60
2022-11-03T15:16:49.903Z,14.60
2022-11-03T15:19:18.112Z,14.60
2022-11-03T15:21:46.306Z,14.60
2022-11-03T15:27:04.115Z,14.60
2022-11-03T15:29:32.351Z,14.60
2022-11-03T15:32:00.574Z,14.50
2022-11-03T15:34:29.686Z,14.50
2022-11-03T15:36:57.937Z,14.50
2022-11-03T15:39:26.121Z,14.40
2022-11-03T15:41:54.711Z,14.20
2022-11-03T15:44:24.292Z,14.00
2022-11-03T15:46:52.710Z,13.90
2022-11-03T15:49:20.976Z,13.80
2022-11-03T15:51:49.202Z,13.80
2022-11-03T15:54:17.976Z,13.90
2022-11-03T15:56:46.188Z,13.90
2022-11-03T15:59:14.315Z,13.90
2022-11-03T16:01:43.962Z,13.90
2022-11-03T16:04:12.306Z,13.90
2022-11-03T16:07:06.175Z,13.90
2022-11-03T16:09:28.624Z,13.90
2022-11-03T16:11:56.855Z,13.90
2022-11-03T16:14:25.186Z,13.90
2022-11-03T16:16:54.736Z,13.90
2022-11-03T16:19:22.932Z,13.80
2022-11-03T16:21:51.730Z,13.70
2022-11-03T16:24:20.016Z,13.70
2022-11-03T16:26:48.196Z,13.60
2022-11-03T16:29:16.460Z,13.60
2022-11-03T16:31:46.392Z,13.60
2022-11-03T16:34:15.953Z,13.50
2022-11-03T16:36:44.334Z,13.50
2022-11-03T16:39:12.754Z,13.50
2022-11-03T16:41:40.870Z,13.50
2022-11-03T16:44:09.328Z,13.40
2022-11-03T16:46:37.620Z,13.40
2022-11-03T16:49:05.859Z,13.40
2022-11-03T16:51:35.408Z,13.30
2022-11-03T16:54:03.616Z,13.20
2022-11-03T16:56:31.808Z,13.00
2022-11-03T16:59:00.298Z,13.00
2022-11-03T17:01:28.439Z,12.80
2022-11-03T17:03:56.697Z,12.80
2022-11-03T17:06:25.487Z,12.70
2022-11-03T17:08:55.264Z,12.70
2022-11-03T17:11:36.763Z,12.60
2022-11-03T17:14:13.276Z,12.60
2022-11-03T17:16:45.426Z,12.60
2022-11-03T17:19:13.956Z,12.50
2022-11-03T17:21:42.386Z,12.50
2022-11-03T17:24:13.291Z,12.50
2022-11-03T17:26:55.800Z,12.50
2022-11-03T17:29:30.838Z,12.50
2022-11-03T17:31:59.096Z,12.50
2022-11-03T17:34:27.454Z,12.50
2022-11-03T17:36:56.054Z,12.40
2022-11-03T17:39:29.648Z,12.40
2022-11-03T17:42:12.605Z,12.40
2022-11-03T17:44:40.784Z,12.40
2022-11-03T17:47:09.021Z,12.30
2022-11-03T17:49:37.227Z,12.30
2022-11-03T17:52:05.883Z,12.30
2022-11-03T17:54:35.481Z,12.30
2022-11-03T17:57:05.176Z,12.30
2022-11-03T17:59:34.447Z,12.30
2022-11-03T18:02:04.221Z,12.30
2022-11-03T18:04:32.597Z,12.20
2022-11-03T18:07:01.904Z,12.20
2022-11-03T18:09:30.086Z,12.20
2022-11-03T18:12:16.945Z,12.20
2022-11-03T18:14:45.325Z,12.20
2022-11-03T18:17:13.895Z,12.30
2022-11-03T18:19:42.123Z,12.30
2022-11-03T18:22:12.908Z,12.30
2022-11-03T18:24:41.123Z,12.30
2022-11-03T18:27:24.171Z,12.30
2022-11-03T18:29:53.444Z,12.30
2022-11-03T18:32:21.788Z,12.30
2022-11-03T18:34:50.040Z,12.30
2022-11-03T18:37:18.220Z,12.30
2022-11-03T18:39:46.438Z,12.30
2022-11-03T18:42:16.872Z,12.30
2022-11-03T18:44:45.107Z,12.30
2022-11-03T18:47:13.283Z,12.30
2022-11-03T18:49:41.555Z,12.30
2022-11-03T18:52:14.863Z,12.30
2022-11-03T18:54:50.206Z,12.30
2022-11-03T18:57:22.731Z,12.40
2022-11-03T18:59:51.109Z,12.30
2022-11-03T19:02:21.371Z,12.30
2022-11-03T19:04:50.119Z,12.40
2022-11-03T19:07:23.916Z,12.30
2022-11-03T19:09:52.973Z,12.30
2022-11-03T19:12:22.914Z,12.30
2022-11-03T19:14:52.171Z,12.20
2022-11-03T19:17:24.368Z,12.20
2022-11-03T19:19:53.869Z,12.30
2022-11-03T19:22:23.856Z,12.30
2022-11-03T19:24:52.220Z,12.30
2022-11-03T19:27:25.492Z,12.20
2022-11-03T19:29:54.569Z,12.20
2022-11-03T19:32:26.013Z,12.30
2022-11-03T19:34:58.858Z,12.20
2022-11-03T19:37:31.086Z,12.30
2022-11-03T19:40:05.955Z,12.30
2022-11-03T19:42:37.123Z,12.30
2022-11-03T19:45:07.916Z,12.30
2022-11-03T19:47:47.792Z,12.30
2022-11-03T19:50:24.857Z,12.30
2022-11-03T19:52:56.131Z,12.30
2022-11-03T19:55:30.081Z,12.30
2022-11-03T19:58:03.338Z,12.20
2022-11-03T20:00:32.019Z,12.20
2022-11-03T20:03:00.352Z,12.20
2022-11-03T20:05:28.533Z,12.10
2022-11-03T20:07:58.388Z,12.10
2022-11-03T20:10:27.562Z,12.10
2022-11-03T20:12:57.479Z,12.10
2022-11-03T20:15:27.064Z,12.10
2022-11-03T20:17:55.230Z,12.10
2022-11-03T20:20:26.649Z,12.00
2022-11-03T20:22:58.743Z,12.00
2022-11-03T20:25:29.339Z,12.00
2022-11-03T20:27:59.028Z,12.00
2022-11-03T20:30:31.269Z,11.90
2022-11-03T20:32:59.487Z,11.90
2022-11-03T20:35:29.559Z,12.00
2022-11-03T20:37:59.813Z,12.00
2022-11-03T20:40:32.207Z,12.00
2022-11-03T20:43:03.313Z,11.90
2022-11-03T20:45:33.137Z,11.90
2022-11-03T20:48:01.264Z,11.90
2022-11-03T20:50:31.687Z,11.90
2022-11-03T20:53:00.707Z,11.90
2022-11-03T20:55:29.696Z,11.90
2022-11-03T20:57:59.550Z,11.80
2022-11-03T21:00:28.627Z,11.80
2022-11-03T21:02:58.719Z,11.80
2022-11-03T21:05:29.625Z,11.90
2022-11-03T21:07:57.938Z,11.90
2022-11-03T21:10:26.065Z,11.90
2022-11-03T21:12:54.960Z,11.80
2022-11-03T21:15:57.737Z,11.90
2022-11-03T21:18:49.569Z,11.80
2022-11-03T21:21:21.223Z,11.80
2022-11-03T21:23:49.680Z,11.80
2022-11-03T21:26:18.006Z,11.80
2022-11-03T21:28:46.156Z,11.80
2022-11-03T21:31:15.161Z,11.80
2022-11-03T21:33:45.432Z,11.80
2022-11-03T21:36:13.734Z,11.80
2022-11-03T21:38:41.898Z,11.80
2022-11-03T21:41:38.727Z,11.80
2022-11-03T21:44:16.027Z,11.80
2022-11-03T21:46:44.893Z,11.80
2022-11-03T21:49:33.028Z,11.90
2022-11-03T21:52:01.302Z,11.90
2022-11-03T21:54:29.479Z,11.90
2022-11-03T21:56:57.661Z,11.90
2022-11-03T21:59:26.012Z,11.90
2022-11-03T22:01:55.227Z,11.90
2022-11-03T22:04:25.386Z,11.90
2022-11-03T22:06:56.719Z,12.00
2022-11-03T22:09:25.649Z,12.00
2022-11-03T22:11:54.784Z,12.00
2022-11-03T22:14:23.154Z,11.90
2022-11-03T22:16:50.618Z,12.00
2022-11-03T22:19:46.010Z,12.00
2022-11-03T22:22:33.889Z,12.00
2022-11-03T22:25:30.895Z,12.00
2022-11-03T22:27:59.088Z,12.00
2022-11-03T22:30:44.735Z,12.00
2022-11-03T22:33:14.370Z,12.00
2022-11-03T22:35:56.499Z,12.00
2022-11-03T22:38:46.201Z,11.90
2022-11-03T22:41:31.813Z,12.00
2022-11-03T22:44:17.402Z,12.00
2022-11-03T22:46:45.700Z,12.00
2022-11-03T22:49:13.845Z,12.00
2022-11-03T22:51:42.060Z,12.00
2022-11-03T22:54:10.628Z,12.00
2022-11-03T22:56:40.089Z,12.00
2022-11-03T22:59:08.799Z,12.00
2022-11-03T23:01:37.450Z,12.00
2022-11-03T23:04:07.281Z,12.00
2022-11-03T23:06:38.700Z,12.10
2022-11-03T23:09:07.416Z,12.10
2022-11-03T23:11:37.036Z,12.10
2022-11-03T23:14:07.678Z,12.10
2022-11-03T23:16:39.925Z,12.10
2022-11-03T23:19:27.976Z,12.10
2022-11-03T23:21:56.571Z,12.10
2022-11-03T23:24:45.317Z,12.20
2022-11-03T23:27:15.473Z,12.10
2022-11-03T23:29:43.653Z,12.20
2022-11-03T23:32:11.889Z,12.20
2022-11-03T23:34:41.039Z,12.20
2022-11-03T23:37:09.757Z,12.20
2022-11-03T23:39:38.012Z,12.10
2022-11-03T23:42:06.636Z,12.10
2022-11-03T23:44:51.109Z,12.10
2022-11-03T23:47:36.673Z,12.00
2022-11-03T23:50:05.187Z,11.90
2022-11-03T23:52:33.576Z,11.90
2022-11-03T23:55:02.100Z,11.90
2022-11-03T23:57:47.844Z,11.80
